El Jebel, Colorado
Current Conditions -  °F | °C
As of 3:16 AM on Sunday 23 Nov 2014 (Local Time) from K5SM Reporting Station
Moderate Snow Moderate Snow  
Wind Chill: 17°   Ceiling: 200
Heat Index: 23°   Visibility: 0.5mi
Dew Point: 21°   Wind: 5mph
Humidity: 93%   Direction: 250°WSW
Pressure: 29.77"   Gusts: NA
Location:  39.4°N, 107.09°W
Report Text: K5SM 231016Z AUTO 25004KT 1/2SM SN OVC002 M05/M06 A2977 RMK AO2
Loading
Personal Weather Stations






























Interactive Weather Map New forecast layout! Learn more

10-Day Weather Forecast

Advertisements
Track Severe Weather on mobile